2011-03-13から1日間の記事一覧

Aviation Digital Data Service (ADDS)

Aviation Digital Data Service (ADDS)Output produced by METARs form (1303 UTC 13 March 2011) found at http://aviationweather.gov/adds/metars/index.php RJFR 131200Z 36004KT CAVOK 10/06 Q1019 RJFR 131100Z VRB02KT CAVOK 11/06 Q1019 RJFR 131000…

もらったPC

pc

1年前にもらったPCは、電源(AOpen FSP145-60SA)が焼けていて、交換するにも特殊なFlex-ATXの大きさのためあきらめて引っ越すケースを探していた。 引っ越すケースは電源付だと安くても4,000円くらいはする。4,000円だとデスクトップPCの中古品そのものが買えちゃ…

Aviation Digital Data Service (ADDS)

Aviation Digital Data Service (ADDS)Output produced by METARs form (2140 UTC 12 March 2011) found at http://aviationweather.gov/adds/metars/index.php RJFR 122100Z 36005KT 9999 FEW030 05/03 Q1021 RJFR 122000Z 32004KT CAVOK 05/04 Q1020 RJFR …